createdAt,value
2019-05-07T00:00:24.528Z,0.47
2019-05-07T00:01:28.351Z,0.50
2019-05-07T00:02:32.314Z,0.47
2019-05-07T00:03:36.230Z,0.50
2019-05-07T00:04:42.844Z,0.60
2019-05-07T00:05:45.044Z,0.53
2019-05-07T00:06:49.121Z,0.50
2019-05-07T00:07:53.110Z,0.50
2019-05-07T00:08:57.032Z,0.53
2019-05-07T00:10:03.213Z,0.47
2019-05-07T00:11:04.869Z,0.30
2019-05-07T00:12:08.745Z,0.40
2019-05-07T00:13:12.938Z,0.40
2019-05-07T00:14:16.584Z,0.50
2019-05-07T00:15:20.420Z,0.47
2019-05-07T00:16:24.285Z,0.50
2019-05-07T00:17:28.139Z,0.60
2019-05-07T00:18:32.306Z,0.37
2019-05-07T00:19:36.034Z,0.60
2019-05-07T00:20:42.142Z,0.42
2019-05-07T00:21:43.813Z,0.42
2019-05-07T00:22:47.824Z,0.42
2019-05-07T00:23:52.693Z,0.50
2019-05-07T00:24:55.643Z,0.50
2019-05-07T00:26:02.227Z,0.50
2019-05-07T00:27:04.434Z,0.40
2019-05-07T00:28:08.299Z,0.50
2019-05-07T00:29:12.988Z,0.40
2019-05-07T00:30:16.396Z,0.40
2019-05-07T00:31:20.292Z,0.45
2019-05-07T00:32:24.162Z,0.40
2019-05-07T00:33:28.066Z,0.62
2019-05-07T00:34:36.363Z,0.60
2019-05-07T00:35:45.395Z,0.60
2019-05-07T00:36:57.090Z,0.53
2019-05-07T00:38:04.119Z,0.62
2019-05-07T00:39:14.046Z,0.53
2019-05-07T00:40:42.564Z,0.68
2019-05-07T00:41:49.697Z,0.57
2019-05-07T00:42:58.720Z,0.50
2019-05-07T00:44:03.235Z,0.50
2019-05-07T00:45:20.095Z,0.60
2019-05-07T00:46:17.648Z,0.75
2019-05-07T00:47:22.245Z,0.53
2019-05-07T00:48:25.601Z,0.50
2019-05-07T00:49:30.304Z,0.55
2019-05-07T00:50:34.385Z,0.70
2019-05-07T00:51:38.252Z,0.50
2019-05-07T00:52:42.949Z,0.50
2019-05-07T00:53:46.224Z,0.60
2019-05-07T00:54:53.082Z,0.72
2019-05-07T00:55:55.447Z,0.45
2019-05-07T00:56:59.296Z,0.53
2019-05-07T00:58:03.192Z,0.60
2019-05-07T00:59:07.072Z,0.53
2019-05-07T01:00:13.005Z,0.60
2019-05-07T01:01:15.072Z,0.50
2019-05-07T01:02:22.324Z,0.53
2019-05-07T01:03:23.930Z,0.45
2019-05-07T01:04:27.884Z,0.60
2019-05-07T01:05:32.613Z,0.40
2019-05-07T01:06:35.716Z,0.40
2019-05-07T01:07:41.828Z,0.50
2019-05-07T01:08:52.392Z,0.33
2019-05-07T01:09:54.086Z,0.57
2019-05-07T01:10:58.226Z,0.47
2019-05-07T01:12:03.130Z,0.60
2019-05-07T01:13:06.062Z,0.50
2019-05-07T01:14:12.241Z,0.50
2019-05-07T01:15:27.131Z,0.47
2019-05-07T01:16:18.108Z,0.50
2019-05-07T01:17:22.733Z,0.40
2019-05-07T01:18:25.886Z,0.40
2019-05-07T01:19:29.757Z,0.53
2019-05-07T01:20:33.652Z,0.60
2019-05-07T01:21:37.498Z,0.60
2019-05-07T01:22:42.463Z,0.60
2019-05-07T01:23:45.404Z,0.40
2019-05-07T01:24:49.380Z,0.40
2019-05-07T01:25:53.272Z,0.50
2019-05-07T01:26:57.205Z,0.40
2019-05-07T01:28:02.620Z,0.60
2019-05-07T01:29:04.989Z,0.50
2019-05-07T01:30:09.000Z,0.60
2019-05-07T01:31:12.839Z,0.40
2019-05-07T01:33:19.589Z,0.40
2019-05-07T01:34:42.817Z,0.50
2019-05-07T01:35:49.571Z,0.30
2019-05-07T01:36:53.452Z,0.50
2019-05-07T01:37:57.304Z,0.40
2019-05-07T01:39:02.647Z,0.40
2019-05-07T01:40:05.192Z,0.55
2019-05-07T01:41:09.140Z,0.50
2019-05-07T01:42:12.983Z,0.47
2019-05-07T01:43:16.874Z,0.50
2019-05-07T01:44:22.160Z,0.62
2019-05-07T01:45:25.380Z,0.50
2019-05-07T01:46:29.261Z,0.50
2019-05-07T01:47:33.274Z,0.50
2019-05-07T01:48:37.051Z,0.50
2019-05-07T01:49:42.158Z,0.65
2019-05-07T01:50:44.958Z,0.68
2019-05-07T01:51:48.877Z,0.35
2019-05-07T01:52:52.741Z,0.40
2019-05-07T01:53:56.615Z,0.65
2019-05-07T01:55:02.992Z,0.60
2019-05-07T01:56:04.463Z,0.70
2019-05-07T01:57:08.331Z,0.75
2019-05-07T01:58:12.674Z,0.60
2019-05-07T01:59:16.117Z,0.57
2019-05-07T02:00:22.283Z,0.60
2019-05-07T02:01:35.508Z,0.40
2019-05-07T02:02:39.760Z,0.40
2019-05-07T02:03:52.803Z,0.50
2019-05-07T02:05:03.210Z,0.50
2019-05-07T02:06:09.596Z,0.47
2019-05-07T02:07:19.664Z,0.40
2019-05-07T02:08:28.607Z,0.40
2019-05-07T02:09:51.930Z,0.40
2019-05-07T02:11:02.110Z,0.45
2019-05-07T02:12:17.330Z,0.35
2019-05-07T02:13:22.328Z,0.30
2019-05-07T02:14:25.239Z,0.50
2019-05-07T02:15:29.156Z,0.40
2019-05-07T02:16:33.070Z,0.40
2019-05-07T02:17:36.940Z,0.30
2019-05-07T02:18:42.415Z,0.60
2019-05-07T02:19:44.870Z,0.40
2019-05-07T02:20:48.788Z,0.50
2019-05-07T02:21:52.806Z,0.47
2019-05-07T02:22:56.592Z,0.30
2019-05-07T02:24:00.469Z,0.45
2019-05-07T02:25:04.643Z,0.30
2019-05-07T02:26:08.517Z,0.40
2019-05-07T02:27:12.666Z,0.40
2019-05-07T02:28:16.405Z,0.40
2019-05-07T02:29:20.394Z,0.50
2019-05-07T02:30:24.329Z,0.40
2019-05-07T02:31:28.241Z,0.30
2019-05-07T02:32:33.415Z,0.55
2019-05-07T02:33:36.087Z,0.40
2019-05-07T02:34:43.694Z,0.40
2019-05-07T02:35:44.180Z,0.40
2019-05-07T02:36:47.900Z,0.40
2019-05-07T02:37:57.166Z,0.40
2019-05-07T02:39:04.837Z,0.60
2019-05-07T02:40:14.180Z,0.40
2019-05-07T02:41:23.182Z,0.47
2019-05-07T02:42:24.566Z,0.40
2019-05-07T02:43:28.564Z,0.50
2019-05-07T02:44:33.637Z,0.80
2019-05-07T02:45:43.950Z,0.70
2019-05-07T02:46:55.643Z,0.55
2019-05-07T02:48:03.242Z,0.35
2019-05-07T02:49:15.491Z,0.40
2019-05-07T02:50:54.272Z,0.55
2019-05-07T02:52:04.052Z,0.70
2019-05-07T02:53:13.719Z,0.40
2019-05-07T02:54:28.075Z,0.50
2019-05-07T02:55:36.645Z,0.50
2019-05-07T02:56:43.120Z,0.40
2019-05-07T02:57:44.509Z,0.50
2019-05-07T02:58:48.408Z,0.30
2019-05-07T02:59:54.366Z,0.37
2019-05-07T03:00:56.389Z,0.47
2019-05-07T03:02:03.371Z,0.53
2019-05-07T03:03:04.698Z,0.45
2019-05-07T03:04:08.289Z,0.50
2019-05-07T03:05:13.669Z,0.40
2019-05-07T03:06:16.136Z,0.50
2019-05-07T03:07:20.037Z,0.33
2019-05-07T03:08:27.350Z,0.40
2019-05-07T03:09:27.863Z,0.42
2019-05-07T03:10:33.952Z,0.40
2019-05-07T03:11:35.765Z,0.45
2019-05-07T03:12:42.757Z,0.35
2019-05-07T03:13:43.632Z,0.40
2019-05-07T03:14:47.532Z,0.30
2019-05-07T03:15:53.965Z,0.40
2019-05-07T03:16:55.376Z,0.30
2019-05-07T03:17:59.324Z,0.35
2019-05-07T03:19:04.125Z,0.40
2019-05-07T03:20:09.070Z,0.50
2019-05-07T03:21:15.606Z,1.52
2019-05-07T03:22:22.874Z,1.22
2019-05-07T03:23:26.127Z,0.88
2019-05-07T03:24:36.062Z,0.70
2019-05-07T03:25:44.968Z,0.53
2019-05-07T03:26:48.950Z,0.60
2019-05-07T03:27:53.620Z,0.60
2019-05-07T03:28:58.813Z,0.57
2019-05-07T03:30:16.435Z,0.40
2019-05-07T03:31:17.453Z,0.85
2019-05-07T03:32:28.534Z,1.07
2019-05-07T03:33:37.056Z,3.35
2019-05-07T03:35:05.899Z,1.55
2019-05-07T03:36:06.879Z,1.57
2019-05-07T03:37:13.272Z,1.40
2019-05-07T03:38:13.569Z,0.90
2019-05-07T03:39:17.479Z,1.25
2019-05-07T03:40:23.120Z,0.82
2019-05-07T03:41:26.641Z,0.70
2019-05-07T03:42:33.258Z,0.78
2019-05-07T03:43:34.700Z,0.82
2019-05-07T03:48:17.457Z,0.57
2019-05-07T03:49:26.457Z,0.70
2019-05-07T03:50:30.420Z,0.65
2019-05-07T03:51:34.334Z,0.78
2019-05-07T03:52:38.425Z,0.67
2019-05-07T03:53:43.706Z,0.50
2019-05-07T03:54:46.945Z,0.78
2019-05-07T03:55:53.404Z,0.72
2019-05-07T03:56:54.777Z,0.60
2019-05-07T03:57:58.646Z,0.50
2019-05-07T03:59:03.620Z,0.50
2019-05-07T04:00:07.334Z,0.72
2019-05-07T04:01:13.274Z,0.60
2019-05-07T04:02:15.188Z,0.60
2019-05-07T04:03:20.822Z,0.82
2019-05-07T04:04:23.211Z,0.62
2019-05-07T04:05:26.883Z,0.60
2019-05-07T04:06:33.205Z,0.60
2019-05-07T04:07:34.697Z,0.50
2019-05-07T04:08:38.570Z,0.65
2019-05-07T04:09:43.731Z,0.60
2019-05-07T04:10:46.405Z,0.80
2019-05-07T04:11:52.912Z,0.53
2019-05-07T04:12:54.028Z,0.62
2019-05-07T04:13:57.678Z,0.75
2019-05-07T04:15:03.392Z,0.53
2019-05-07T04:16:05.179Z,0.62
2019-05-07T04:17:22.482Z,0.60
2019-05-07T04:18:13.282Z,0.57
2019-05-07T04:19:16.245Z,0.47
2019-05-07T04:20:19.890Z,0.90
2019-05-07T04:21:23.571Z,0.42
2019-05-07T04:22:29.149Z,0.40
2019-05-07T04:23:34.072Z,0.40
2019-05-07T04:24:45.973Z,0.33
2019-05-07T04:25:55.959Z,0.47
2019-05-07T04:27:06.035Z,0.72
2019-05-07T04:28:17.915Z,0.50
2019-05-07T04:29:23.105Z,0.50
2019-05-07T04:30:25.266Z,0.50
2019-05-07T04:31:29.842Z,0.50
2019-05-07T04:32:38.866Z,0.40
2019-05-07T04:33:43.943Z,0.40
2019-05-07T04:34:53.221Z,0.50
2019-05-07T04:36:02.844Z,0.42
2019-05-07T04:37:04.843Z,0.62
2019-05-07T04:38:08.488Z,0.53
2019-05-07T04:39:13.235Z,0.60
2019-05-07T04:40:15.879Z,0.88
2019-05-07T04:41:19.573Z,0.62
2019-05-07T04:42:24.414Z,0.88
2019-05-07T04:43:27.168Z,1.10
2019-05-07T04:44:33.268Z,0.90
2019-05-07T04:45:34.389Z,0.70
2019-05-07T04:46:38.027Z,0.78
2019-05-07T04:47:47.026Z,0.55
2019-05-07T04:48:45.399Z,1.00
2019-05-07T04:49:49.107Z,0.70
2019-05-07T04:50:54.201Z,0.60
2019-05-07T04:52:03.940Z,0.80
2019-05-07T04:53:05.796Z,0.78
2019-05-07T04:54:09.435Z,0.70
2019-05-07T04:55:13.884Z,0.70
2019-05-07T04:56:16.783Z,0.60
2019-05-07T04:57:26.311Z,0.50
2019-05-07T04:58:29.951Z,0.50
2019-05-07T04:59:33.693Z,0.50
2019-05-07T05:00:37.467Z,0.62
2019-05-07T05:01:44.230Z,0.55
2019-05-07T05:02:55.353Z,0.60
2019-05-07T05:03:59.035Z,0.72
2019-05-07T05:05:03.481Z,0.60
2019-05-07T05:06:06.364Z,0.65
2019-05-07T05:07:09.977Z,0.60
2019-05-07T05:08:13.638Z,0.70
2019-05-07T05:09:17.516Z,0.60
2019-05-07T05:10:23.191Z,0.70
2019-05-07T05:11:25.055Z,0.50
2019-05-07T05:12:28.641Z,0.50
2019-05-07T05:13:33.328Z,0.40
2019-05-07T05:14:36.033Z,0.70
2019-05-07T05:15:39.671Z,0.40
2019-05-07T05:16:43.282Z,0.50
2019-05-07T05:17:54.000Z,0.45
2019-05-07T05:18:57.184Z,0.40
2019-05-07T05:20:03.586Z,0.53
2019-05-07T05:21:13.685Z,0.40
2019-05-07T05:22:25.492Z,0.50
2019-05-07T05:23:36.528Z,0.50
2019-05-07T05:24:43.640Z,0.80
2019-05-07T05:25:47.333Z,0.70
2019-05-07T05:26:52.573Z,0.50
2019-05-07T05:27:54.599Z,0.50
2019-05-07T05:28:58.233Z,0.62
2019-05-07T05:30:03.086Z,0.42
2019-05-07T05:31:05.877Z,0.45
2019-05-07T05:32:09.467Z,0.40
2019-05-07T05:33:13.205Z,0.60
2019-05-07T05:34:16.864Z,0.50
2019-05-07T05:35:22.213Z,0.70
2019-05-07T05:36:24.606Z,0.60
2019-05-07T05:37:28.231Z,0.40
2019-05-07T05:38:32.931Z,0.42
2019-05-07T05:39:35.486Z,0.50
2019-05-07T05:40:39.124Z,0.57
2019-05-07T05:41:43.147Z,0.60
2019-05-07T05:42:52.486Z,0.78
2019-05-07T05:43:59.309Z,1.47
2019-05-07T05:45:02.980Z,1.60
2019-05-07T05:46:06.660Z,1.45
2019-05-07T05:47:11.930Z,2.22
2019-05-07T05:48:14.049Z,2.25
2019-05-07T05:49:17.746Z,2.40
2019-05-07T05:50:21.881Z,2.02
2019-05-07T05:52:27.920Z,2.12
2019-05-07T05:53:43.484Z,1.92
2019-05-07T05:54:52.775Z,1.42
2019-05-07T05:55:55.178Z,6.92
2019-05-07T05:57:03.699Z,10.35
2019-05-07T05:58:14.486Z,7.35
2019-05-07T05:59:46.580Z,6.15
2019-05-07T06:00:38.047Z,5.22
2019-05-07T06:01:47.153Z,5.22
2019-05-07T06:03:02.557Z,4.53
2019-05-07T06:04:13.844Z,4.92
2019-05-07T06:05:34.291Z,4.80
2019-05-07T06:06:44.385Z,4.20
2019-05-07T06:07:52.416Z,4.17
2019-05-07T06:09:34.305Z,4.22
2019-05-07T06:11:13.475Z,4.15
2019-05-07T06:12:55.803Z,4.22
2019-05-07T06:14:35.127Z,4.30
2019-05-07T06:15:44.083Z,4.03
2019-05-07T06:16:52.669Z,3.72
2019-05-07T06:18:02.591Z,3.92
2019-05-07T06:19:13.126Z,3.50
2019-05-07T06:20:23.092Z,3.70
2019-05-07T06:21:34.143Z,4.25
2019-05-07T06:22:43.087Z,3.80
2019-05-07T06:23:52.788Z,3.87
2019-05-07T06:25:01.822Z,4.20
2019-05-07T06:26:05.142Z,3.70
2019-05-07T06:27:07.909Z,3.40
2019-05-07T06:28:12.627Z,3.45
2019-05-07T06:29:15.783Z,3.20
2019-05-07T06:30:22.536Z,3.22
2019-05-07T06:31:24.032Z,2.62
2019-05-07T06:32:27.960Z,3.15
2019-05-07T06:33:33.237Z,2.77
2019-05-07T06:34:37.675Z,2.90
2019-05-07T06:35:43.036Z,3.22
2019-05-07T06:36:47.065Z,3.15
2019-05-07T06:37:52.881Z,3.12
2019-05-07T06:39:02.251Z,2.90
2019-05-07T06:41:14.393Z,2.42
2019-05-07T06:42:23.552Z,2.75
2019-05-07T06:43:32.668Z,2.60
2019-05-07T06:44:36.540Z,2.40
2019-05-07T06:45:43.484Z,2.60
2019-05-07T06:46:47.476Z,2.50
2019-05-07T06:47:52.026Z,2.17
2019-05-07T06:48:55.406Z,2.67
2019-05-07T06:50:00.141Z,2.45
2019-05-07T06:51:04.018Z,2.58
2019-05-07T06:52:07.924Z,2.17
2019-05-07T06:53:12.630Z,2.80
2019-05-07T06:54:16.530Z,2.20
2019-05-07T06:55:22.657Z,2.58
2019-05-07T06:56:24.551Z,2.55
2019-05-07T06:57:32.839Z,2.42
2019-05-07T06:58:41.935Z,2.50
2019-05-07T06:59:47.649Z,2.20
2019-05-07T07:01:59.236Z,2.40
2019-05-07T07:03:10.130Z,2.17
2019-05-07T07:04:18.132Z,2.00
2019-05-07T07:05:27.172Z,2.27
2019-05-07T07:06:34.938Z,2.40
2019-05-07T07:07:42.934Z,2.20
2019-05-07T07:08:52.644Z,2.45
2019-05-07T07:10:04.489Z,2.20
2019-05-07T07:11:15.284Z,2.02
2019-05-07T07:12:24.012Z,2.22
2019-05-07T07:13:25.186Z,1.70
2019-05-07T07:14:29.074Z,2.15
2019-05-07T07:15:32.998Z,1.90
2019-05-07T07:16:36.892Z,2.15
2019-05-07T07:17:41.873Z,1.90
2019-05-07T07:18:51.969Z,1.95
2019-05-07T07:19:48.845Z,1.80
2019-05-07T07:20:52.803Z,1.70
2019-05-07T07:21:56.695Z,1.75
2019-05-07T07:23:02.353Z,1.70
2019-05-07T07:24:04.596Z,1.80
2019-05-07T07:25:08.588Z,1.80
2019-05-07T07:26:12.746Z,2.00
2019-05-07T07:27:16.442Z,1.75
2019-05-07T07:28:21.932Z,1.70
2019-05-07T07:29:24.677Z,1.37
2019-05-07T07:30:32.711Z,1.70
2019-05-07T07:32:07.491Z,2.10
2019-05-07T07:33:12.172Z,1.75
2019-05-07T07:34:15.825Z,1.65
2019-05-07T07:35:22.579Z,1.98
2019-05-07T07:36:25.420Z,1.55
2019-05-07T07:37:33.492Z,1.75
2019-05-07T07:38:37.352Z,2.00
2019-05-07T07:39:43.034Z,2.17
2019-05-07T07:40:46.871Z,1.47
2019-05-07T07:41:53.735Z,1.37
2019-05-07T07:42:58.528Z,1.75
2019-05-07T07:44:02.443Z,1.72
2019-05-07T07:45:12.435Z,1.70
2019-05-07T07:46:16.606Z,1.42
2019-05-07T07:47:19.724Z,1.67
2019-05-07T07:48:24.947Z,1.92
2019-05-07T07:49:28.542Z,1.72
2019-05-07T07:50:33.066Z,1.57
2019-05-07T07:51:41.112Z,1.40
2019-05-07T07:52:42.008Z,1.47
2019-05-07T07:53:44.427Z,1.45
2019-05-07T07:54:50.225Z,1.45
2019-05-07T07:55:59.270Z,1.50
2019-05-07T07:57:08.757Z,1.55
2019-05-07T07:58:22.170Z,1.40
2019-05-07T07:59:29.970Z,1.62
2019-05-07T08:00:40.213Z,1.82
2019-05-07T08:01:57.672Z,1.32
2019-05-07T08:03:05.660Z,1.52
2019-05-07T08:04:12.293Z,1.27
2019-05-07T08:05:16.842Z,1.25
2019-05-07T08:06:22.559Z,1.37
2019-05-07T08:07:26.684Z,1.30
2019-05-07T08:08:31.987Z,1.22
2019-05-07T08:09:35.998Z,1.55
2019-05-07T08:10:40.012Z,1.30
2019-05-07T08:11:43.874Z,1.40
2019-05-07T08:12:47.836Z,1.07
2019-05-07T08:13:52.867Z,1.50
2019-05-07T08:15:13.043Z,1.22
2019-05-07T08:16:02.458Z,1.30
2019-05-07T08:17:05.547Z,1.30
2019-05-07T08:18:11.827Z,1.15
2019-05-07T08:19:21.714Z,1.20
2019-05-07T08:20:18.991Z,1.20
2019-05-07T08:21:22.979Z,1.32
2019-05-07T08:22:26.879Z,1.30
2019-05-07T08:23:31.942Z,1.42
2019-05-07T08:24:34.694Z,1.10
2019-05-07T08:25:43.783Z,1.20
2019-05-07T08:26:47.786Z,1.30
2019-05-07T08:27:52.306Z,1.45
2019-05-07T08:28:55.602Z,1.35
2019-05-07T08:29:59.500Z,1.05
2019-05-07T08:31:08.327Z,1.30
2019-05-07T08:32:22.423Z,0.95
2019-05-07T08:33:32.108Z,1.20
2019-05-07T08:34:37.521Z,1.00
2019-05-07T08:36:15.593Z,1.12
2019-05-07T08:37:19.476Z,1.30
2019-05-07T08:38:23.502Z,0.90
2019-05-07T08:39:27.370Z,1.30
2019-05-07T08:40:32.585Z,1.10
2019-05-07T08:41:35.341Z,0.95
2019-05-07T08:42:39.314Z,1.07
2019-05-07T08:43:43.210Z,1.00
2019-05-07T08:44:52.204Z,1.02
2019-05-07T08:46:02.686Z,0.95
2019-05-07T08:47:42.516Z,0.82
2019-05-07T08:48:48.410Z,1.17
2019-05-07T08:49:52.463Z,0.95
2019-05-07T08:50:56.373Z,1.17
2019-05-07T08:52:03.486Z,0.90
2019-05-07T08:53:05.082Z,0.95
2019-05-07T08:54:09.020Z,1.10
2019-05-07T08:55:13.908Z,1.00
2019-05-07T08:56:17.788Z,1.05
2019-05-07T08:57:22.737Z,0.98
2019-05-07T08:58:25.642Z,0.90
2019-05-07T08:59:31.744Z,0.88
2019-05-07T09:00:33.712Z,1.05
2019-05-07T09:01:37.964Z,0.95
2019-05-07T09:02:42.167Z,1.20
2019-05-07T09:03:45.849Z,0.80
2019-05-07T09:04:52.355Z,1.00
2019-05-07T09:05:54.575Z,0.90
2019-05-07T09:06:58.551Z,0.90
2019-05-07T09:08:03.665Z,1.00
2019-05-07T09:09:13.046Z,0.80
2019-05-07T09:10:16.124Z,0.90
2019-05-07T09:11:19.977Z,1.00
2019-05-07T09:12:23.993Z,0.95
2019-05-07T09:13:27.997Z,0.80
2019-05-07T09:14:32.199Z,0.95
2019-05-07T09:15:37.061Z,0.80
2019-05-07T09:16:42.674Z,0.60
2019-05-07T09:17:44.966Z,0.80
2019-05-07T09:18:49.357Z,0.80
2019-05-07T09:19:54.955Z,0.80
2019-05-07T09:20:57.239Z,0.80
2019-05-07T09:22:02.156Z,0.80
2019-05-07T09:23:05.120Z,0.98
2019-05-07T09:24:09.020Z,0.80
2019-05-07T09:25:13.679Z,0.90
2019-05-07T09:26:18.809Z,0.95
2019-05-07T09:27:29.130Z,0.80
2019-05-07T09:29:08.468Z,1.00
2019-05-07T09:30:17.395Z,0.80
2019-05-07T09:31:25.424Z,1.10
2019-05-07T09:32:34.146Z,0.70
2019-05-07T09:33:42.971Z,0.70
2019-05-07T09:34:47.848Z,0.62
2019-05-07T09:35:53.631Z,1.00
2019-05-07T09:36:57.664Z,0.80
2019-05-07T09:38:03.214Z,0.75
2019-05-07T09:39:06.545Z,0.70
2019-05-07T09:40:12.622Z,0.55
2019-05-07T09:41:18.834Z,0.70
2019-05-07T09:42:22.840Z,0.50
2019-05-07T09:43:26.688Z,0.60
2019-05-07T09:44:32.455Z,0.60
2019-05-07T09:45:34.607Z,0.80
2019-05-07T09:46:38.574Z,0.60
2019-05-07T09:47:42.577Z,0.70
2019-05-07T09:48:46.522Z,0.65
2019-05-07T09:50:03.936Z,0.60
2019-05-07T09:50:55.172Z,0.90
2019-05-07T09:51:59.012Z,0.70
2019-05-07T09:53:03.005Z,0.70
2019-05-07T09:54:06.871Z,0.60
2019-05-07T09:55:16.594Z,0.60
2019-05-07T09:56:16.765Z,0.70
2019-05-07T09:57:28.279Z,0.53
2019-05-07T09:58:35.800Z,0.60
2019-05-07T09:59:29.396Z,0.42
2019-05-07T10:00:34.420Z,0.60
2019-05-07T10:01:38.368Z,0.57
2019-05-07T10:02:42.613Z,0.70
2019-05-07T10:03:46.418Z,0.70
2019-05-07T10:04:52.723Z,0.47
2019-05-07T10:05:54.987Z,0.33
2019-05-07T10:06:58.835Z,0.50
2019-05-07T10:08:02.754Z,0.57
2019-05-07T10:09:07.312Z,0.65
2019-05-07T10:10:11.969Z,0.50
2019-05-07T10:11:26.049Z,0.50
2019-05-07T10:12:35.644Z,0.50
2019-05-07T10:13:45.366Z,0.50
2019-05-07T10:14:49.285Z,0.50
2019-05-07T10:15:53.240Z,0.70
2019-05-07T10:17:04.682Z,0.40
2019-05-07T10:18:16.098Z,0.50
2019-05-07T10:19:22.097Z,0.50
2019-05-07T10:20:24.513Z,0.50
2019-05-07T10:21:28.452Z,0.45
2019-05-07T10:22:32.365Z,0.68
2019-05-07T10:23:36.314Z,0.35
2019-05-07T10:24:41.916Z,0.50
2019-05-07T10:25:44.260Z,0.55
2019-05-07T10:26:48.250Z,0.50
2019-05-07T10:27:53.231Z,0.37
2019-05-07T10:28:56.120Z,0.50
2019-05-07T10:30:02.273Z,0.30
2019-05-07T10:31:04.173Z,0.60
2019-05-07T10:32:08.161Z,0.40
2019-05-07T10:33:12.446Z,0.50
2019-05-07T10:34:16.208Z,0.60
2019-05-07T10:35:20.240Z,0.82
2019-05-07T10:36:24.117Z,0.45
2019-05-07T10:37:27.976Z,0.60
2019-05-07T10:38:31.998Z,0.50
2019-05-07T10:39:35.857Z,0.53
2019-05-07T10:40:39.848Z,0.40
2019-05-07T10:41:43.980Z,0.40
2019-05-07T10:42:47.865Z,0.40
2019-05-07T10:43:52.001Z,0.45
2019-05-07T10:45:03.625Z,0.40
2019-05-07T10:46:23.575Z,0.40
2019-05-07T10:47:37.543Z,0.57
2019-05-07T10:48:46.940Z,0.60
2019-05-07T10:49:54.917Z,0.37
2019-05-07T10:50:59.346Z,0.60
2019-05-07T10:52:03.190Z,0.40
2019-05-07T10:53:07.254Z,0.45
2019-05-07T10:54:12.586Z,0.40
2019-05-07T10:55:15.143Z,0.40
2019-05-07T10:56:19.085Z,0.30
2019-05-07T10:57:23.138Z,0.50
2019-05-07T10:58:27.224Z,0.45
2019-05-07T10:59:31.167Z,0.33
2019-05-07T11:00:35.149Z,0.35
2019-05-07T11:01:43.114Z,0.40
2019-05-07T11:02:47.046Z,0.47
2019-05-07T11:03:51.755Z,0.40
2019-05-07T11:04:54.908Z,0.50
2019-05-07T11:05:58.800Z,0.45
2019-05-07T11:07:02.652Z,0.30
2019-05-07T11:08:06.653Z,0.30
2019-05-07T11:09:10.556Z,0.40
2019-05-07T11:10:14.594Z,0.35
2019-05-07T11:11:18.492Z,0.30
2019-05-07T11:12:22.902Z,0.33
2019-05-07T11:13:26.998Z,0.40
2019-05-07T11:14:32.129Z,0.37
2019-05-07T11:15:35.834Z,0.40
2019-05-07T11:16:44.444Z,0.40
2019-05-07T11:17:53.038Z,0.40
2019-05-07T11:18:57.066Z,0.42
2019-05-07T11:20:00.992Z,0.50
2019-05-07T11:21:05.332Z,0.40
2019-05-07T11:22:11.509Z,0.40
2019-05-07T11:23:13.472Z,0.37
2019-05-07T11:24:18.059Z,0.45
2019-05-07T11:25:24.804Z,0.30
2019-05-07T11:26:29.677Z,0.20
2019-05-07T11:27:33.601Z,0.40
2019-05-07T11:28:37.491Z,0.40
2019-05-07T11:29:42.991Z,0.40
2019-05-07T11:30:45.401Z,0.30
2019-05-07T11:31:49.281Z,0.30
2019-05-07T11:32:53.163Z,0.40
2019-05-07T11:33:57.096Z,0.42
2019-05-07T11:35:02.956Z,0.45
2019-05-07T11:36:05.087Z,0.53
2019-05-07T11:37:08.965Z,0.40
2019-05-07T11:38:20.737Z,0.30
2019-05-07T11:39:16.723Z,0.40
2019-05-07T11:40:22.689Z,0.30
2019-05-07T11:41:32.097Z,0.30
2019-05-07T11:42:44.873Z,0.20
2019-05-07T11:44:01.832Z,0.50
2019-05-07T11:45:05.855Z,0.30
2019-05-07T11:46:13.441Z,0.40
2019-05-07T11:47:22.610Z,0.30
2019-05-07T11:48:26.819Z,0.45
2019-05-07T11:49:37.688Z,0.30
2019-05-07T11:51:00.478Z,0.40
2019-05-07T11:51:59.745Z,0.37
2019-05-07T11:53:06.348Z,0.30
2019-05-07T11:54:12.742Z,0.35
2019-05-07T11:55:15.211Z,0.30
2019-05-07T11:56:19.139Z,0.30
2019-05-07T11:57:22.987Z,0.30
2019-05-07T11:58:26.955Z,0.40
2019-05-07T11:59:32.563Z,0.30
2019-05-07T12:00:39.886Z,0.60
2019-05-07T12:01:47.804Z,0.33
2019-05-07T12:02:51.911Z,0.40
2019-05-07T12:03:54.887Z,0.35
2019-05-07T12:04:58.800Z,0.30
2019-05-07T12:06:02.659Z,0.30
2019-05-07T12:07:06.525Z,0.37
2019-05-07T12:08:10.517Z,0.40
2019-05-07T12:09:14.480Z,0.30
2019-05-07T12:10:18.362Z,0.20
2019-05-07T12:11:22.224Z,0.40
2019-05-07T12:12:26.075Z,0.20
2019-05-07T12:13:32.098Z,0.30
2019-05-07T12:14:35.001Z,0.40
2019-05-07T12:15:38.474Z,0.40
2019-05-07T12:16:42.679Z,0.40
2019-05-07T12:17:46.293Z,0.30
2019-05-07T12:18:52.430Z,0.40
2019-05-07T12:19:54.255Z,0.30
2019-05-07T12:20:58.271Z,0.30
2019-05-07T12:22:02.757Z,0.35
2019-05-07T12:23:06.155Z,0.28
2019-05-07T12:24:12.349Z,0.40
2019-05-07T12:25:14.060Z,0.30
2019-05-07T12:26:17.973Z,0.30
2019-05-07T12:27:23.069Z,0.30
2019-05-07T12:28:25.719Z,0.30
2019-05-07T12:29:29.556Z,0.30
2019-05-07T12:30:42.814Z,0.40
2019-05-07T12:32:48.441Z,0.30
2019-05-07T12:33:57.411Z,0.20
2019-05-07T12:35:05.351Z,0.35
2019-05-07T12:36:12.451Z,0.30
2019-05-07T12:37:13.912Z,0.30
2019-05-07T12:38:17.767Z,0.40
2019-05-07T12:39:21.986Z,0.37
2019-05-07T12:40:25.613Z,0.40
2019-05-07T12:41:33.254Z,0.25
2019-05-07T12:42:34.508Z,0.30
2019-05-07T12:43:38.466Z,0.30
2019-05-07T12:44:42.743Z,0.40
2019-05-07T12:45:46.618Z,0.28
2019-05-07T12:46:52.312Z,0.40
2019-05-07T12:47:54.426Z,0.40
2019-05-07T12:48:58.305Z,0.30
2019-05-07T12:50:02.201Z,0.20
2019-05-07T12:51:06.188Z,0.30
2019-05-07T12:52:47.209Z,0.40
2019-05-07T12:53:55.311Z,0.30
2019-05-07T12:55:04.156Z,0.30
2019-05-07T12:56:07.976Z,0.30
2019-05-07T12:57:12.696Z,0.35
2019-05-07T12:58:16.604Z,0.30
2019-05-07T12:59:21.880Z,0.25
2019-05-07T13:01:33.158Z,0.30
2019-05-07T13:02:44.346Z,0.20
2019-05-07T13:03:57.402Z,0.23
2019-05-07T13:05:02.966Z,0.33
2019-05-07T13:06:06.009Z,0.30
2019-05-07T13:08:13.135Z,0.20
2019-05-07T13:09:17.123Z,0.30
2019-05-07T13:10:21.899Z,0.25
2019-05-07T13:11:25.023Z,0.40
2019-05-07T13:12:28.889Z,0.35
2019-05-07T13:13:32.818Z,0.30
2019-05-07T13:14:36.753Z,0.30
2019-05-07T13:15:43.180Z,0.40
2019-05-07T13:16:44.699Z,0.50
2019-05-07T13:17:48.674Z,0.40
2019-05-07T13:18:52.695Z,0.42
2019-05-07T13:19:56.724Z,0.90
2019-05-07T13:21:02.448Z,0.98
2019-05-07T13:22:04.643Z,0.72
2019-05-07T13:23:08.579Z,0.40
2019-05-07T13:24:14.890Z,0.75
2019-05-07T13:25:16.530Z,0.50
2019-05-07T13:26:24.353Z,0.62
2019-05-07T13:27:24.643Z,0.60
2019-05-07T13:28:28.573Z,0.70
2019-05-07T13:29:32.706Z,0.57
2019-05-07T13:30:36.589Z,0.60
2019-05-07T13:31:40.651Z,0.60
2019-05-07T13:32:45.690Z,0.80
2019-05-07T13:33:48.820Z,1.20
2019-05-07T13:34:52.705Z,0.98
2019-05-07T13:35:56.661Z,1.10
2019-05-07T13:37:02.706Z,1.52
2019-05-07T13:38:14.506Z,1.20
2019-05-07T13:39:23.521Z,1.60
2019-05-07T13:40:34.218Z,1.20
2019-05-07T13:42:13.166Z,1.72
2019-05-07T13:43:23.090Z,1.55
2019-05-07T13:44:57.068Z,1.57
2019-05-07T13:46:06.222Z,1.42
2019-05-07T13:47:15.318Z,1.70
2019-05-07T13:48:22.564Z,1.60
2019-05-07T13:49:25.048Z,1.47
2019-05-07T13:50:29.054Z,1.70
2019-05-07T13:51:33.824Z,1.20
2019-05-07T13:52:37.325Z,1.42
2019-05-07T13:53:42.760Z,1.30
2019-05-07T13:54:45.375Z,1.45
2019-05-07T13:55:49.256Z,1.45
2019-05-07T13:56:53.178Z,1.55
2019-05-07T13:57:57.316Z,1.20
2019-05-07T13:59:02.357Z,1.12
2019-05-07T14:00:06.846Z,1.07
2019-05-07T14:01:16.005Z,1.27
2019-05-07T14:02:22.084Z,1.25
2019-05-07T14:03:24.561Z,1.22
2019-05-07T14:04:28.593Z,1.30
2019-05-07T14:05:32.556Z,1.32
2019-05-07T14:06:39.290Z,0.90
2019-05-07T14:07:43.271Z,1.10
2019-05-07T14:08:47.259Z,0.90
2019-05-07T14:09:52.685Z,0.90
2019-05-07T14:10:55.274Z,1.15
2019-05-07T14:11:59.198Z,1.20
2019-05-07T14:13:11.153Z,1.10
2019-05-07T14:14:07.069Z,0.80
2019-05-07T14:15:12.558Z,1.00
2019-05-07T14:16:14.961Z,1.17
2019-05-07T14:17:18.857Z,0.90
2019-05-07T14:18:25.688Z,1.00
2019-05-07T14:19:26.906Z,0.88
2019-05-07T14:20:32.673Z,1.00
2019-05-07T14:21:34.833Z,0.90
2019-05-07T14:22:38.734Z,1.00
2019-05-07T14:23:42.879Z,0.60
2019-05-07T14:24:46.593Z,0.90
2019-05-07T14:25:52.546Z,0.80
2019-05-07T14:26:54.497Z,0.85
2019-05-07T14:27:58.928Z,0.80
2019-05-07T14:29:02.354Z,0.95
2019-05-07T14:30:06.866Z,0.80
2019-05-07T14:31:12.343Z,0.90
2019-05-07T14:32:35.034Z,0.80
2019-05-07T14:33:45.402Z,0.65
2019-05-07T14:34:54.407Z,0.85
2019-05-07T14:36:02.555Z,0.60
2019-05-07T14:37:13.408Z,1.00
2019-05-07T14:38:24.760Z,0.80
2019-05-07T14:39:28.624Z,0.90
2019-05-07T14:40:32.511Z,0.82
2019-05-07T14:41:36.897Z,0.80
2019-05-07T14:42:44.142Z,0.60
2019-05-07T14:43:53.060Z,0.72
2019-05-07T14:44:57.002Z,0.95
2019-05-07T14:46:02.597Z,0.80
2019-05-07T14:47:04.907Z,0.62
2019-05-07T14:48:08.844Z,0.88